createdAt,value
2022-08-28T00:01:13.139Z,80
2022-08-28T00:02:17.383Z,80
2022-08-28T00:03:21.663Z,80
2022-08-28T00:04:30.944Z,80
2022-08-28T00:05:45.024Z,80
2022-08-28T00:06:50.223Z,80
2022-08-28T00:07:54.355Z,80
2022-08-28T00:09:01.920Z,81
2022-08-28T00:10:06.031Z,81
2022-08-28T00:11:10.567Z,81
2022-08-28T00:12:50.283Z,81
2022-08-28T00:15:24.004Z,81
2022-08-28T00:16:30.566Z,81
2022-08-28T00:17:34.700Z,81
2022-08-28T00:18:39.055Z,81
2022-08-28T00:19:53.363Z,81
2022-08-28T00:20:57.535Z,81
2022-08-28T00:22:02.719Z,80
2022-08-28T00:23:06.827Z,80
2022-08-28T00:24:11.151Z,80
2022-08-28T00:25:15.699Z,80
2022-08-28T00:26:22.950Z,80
2022-08-28T00:27:32.311Z,80
2022-08-28T00:28:47.579Z,80
2022-08-28T00:30:07.043Z,80
2022-08-28T00:31:11.336Z,80
2022-08-28T00:32:15.528Z,80
2022-08-28T00:33:24.675Z,80
2022-08-28T00:34:33.215Z,80
2022-08-28T00:35:33.251Z,80
2022-08-28T00:36:53.730Z,80
2022-08-28T00:37:57.923Z,80
2022-08-28T00:39:17.228Z,80
2022-08-28T00:40:28.714Z,80
2022-08-28T00:41:31.430Z,80
2022-08-28T00:44:26.094Z,80
2022-08-28T00:45:30.243Z,80
2022-08-28T00:46:38.069Z,80
2022-08-28T00:47:42.190Z,80
2022-08-28T00:48:48.467Z,80
2022-08-28T00:49:52.743Z,80
2022-08-28T00:51:00.165Z,80
2022-08-28T00:52:07.075Z,81
2022-08-28T00:53:21.339Z,81
2022-08-28T00:54:25.475Z,81
2022-08-28T00:55:29.927Z,81
2022-08-28T00:56:44.112Z,81
2022-08-28T00:57:59.106Z,80
2022-08-28T00:59:08.102Z,80
2022-08-28T01:00:12.431Z,80
2022-08-28T01:01:16.940Z,80
2022-08-28T01:02:21.455Z,80
2022-08-28T01:03:26.451Z,80
2022-08-28T01:04:30.207Z,80
2022-08-28T01:05:35.019Z,80
2022-08-28T01:06:39.199Z,80
2022-08-28T01:07:43.539Z,80
2022-08-28T01:08:50.467Z,80
2022-08-28T01:09:52.226Z,80
2022-08-28T01:10:56.591Z,80
2022-08-28T01:12:01.926Z,80
2022-08-28T01:13:08.503Z,80
2022-08-28T01:14:12.804Z,80
2022-08-28T01:15:17.003Z,80
2022-08-28T01:16:25.312Z,80
2022-08-28T01:17:28.923Z,80
2022-08-28T01:18:33.303Z,80
2022-08-28T01:19:37.524Z,80
2022-08-28T01:20:41.799Z,80
2022-08-28T01:21:48.859Z,80
2022-08-28T01:22:53.067Z,80
2022-08-28T01:24:07.763Z,80
2022-08-28T01:25:11.903Z,80
2022-08-28T01:26:26.203Z,80
2022-08-28T01:28:56.659Z,80
2022-08-28T01:30:00.919Z,80
2022-08-28T01:31:05.318Z,80
2022-08-28T01:32:11.477Z,80
2022-08-28T01:33:27.837Z,80
2022-08-28T01:34:31.251Z,80
2022-08-28T01:35:35.519Z,81
2022-08-28T01:36:56.760Z,81
2022-08-28T01:38:01.111Z,80
2022-08-28T01:39:05.668Z,80
2022-08-28T01:40:22.947Z,80
2022-08-28T01:41:29.832Z,80
2022-08-28T01:42:34.143Z,80
2022-08-28T01:43:38.699Z,80
2022-08-28T01:44:42.964Z,80
2022-08-28T01:45:47.179Z,80
2022-08-28T01:46:52.415Z,80
2022-08-28T01:47:58.327Z,80
2022-08-28T01:49:02.687Z,81
2022-08-28T01:50:26.860Z,81
2022-08-28T01:51:38.166Z,81
2022-08-28T01:52:39.528Z,81
2022-08-28T01:53:46.731Z,81
2022-08-28T01:54:50.511Z,81
2022-08-28T01:55:55.043Z,81
2022-08-28T01:56:59.519Z,81
2022-08-28T01:58:03.826Z,81
2022-08-28T01:59:08.002Z,82
2022-08-28T02:00:12.156Z,82
2022-08-28T02:01:16.629Z,81
2022-08-28T02:02:20.623Z,81
2022-08-28T02:03:24.903Z,82
2022-08-28T02:04:33.033Z,81
2022-08-28T02:05:37.219Z,81
2022-08-28T02:06:41.695Z,81
2022-08-28T02:07:52.148Z,81
2022-08-28T02:08:56.420Z,81
2022-08-28T02:10:05.799Z,81
2022-08-28T02:11:10.113Z,81
2022-08-28T02:14:20.473Z,81
2022-08-28T02:15:24.715Z,81
2022-08-28T02:16:29.387Z,81
2022-08-28T02:17:35.548Z,81
2022-08-28T02:18:39.863Z,82
2022-08-28T02:19:47.792Z,82
2022-08-28T02:21:02.219Z,81
2022-08-28T02:22:06.623Z,81
2022-08-28T02:23:20.895Z,81
2022-08-28T02:24:30.227Z,81
2022-08-28T02:25:43.759Z,81
2022-08-28T02:26:50.360Z,81
2022-08-28T02:28:09.682Z,81
2022-08-28T02:29:15.271Z,81
2022-08-28T02:30:19.711Z,81
2022-08-28T02:31:24.189Z,81
2022-08-28T02:32:44.488Z,81
2022-08-28T02:33:48.780Z,81
2022-08-28T02:34:52.879Z,81
2022-08-28T02:35:56.963Z,81
2022-08-28T02:37:01.119Z,81
2022-08-28T02:38:05.307Z,81
2022-08-28T02:39:10.312Z,81
2022-08-28T02:40:14.809Z,81
2022-08-28T02:41:18.927Z,81
2022-08-28T02:42:23.315Z,81
2022-08-28T02:43:27.512Z,81
2022-08-28T02:44:31.688Z,81
2022-08-28T02:45:36.323Z,81
2022-08-28T02:46:41.515Z,81
2022-08-28T02:47:45.703Z,81
2022-08-28T02:48:50.055Z,81
2022-08-28T02:49:59.295Z,81
2022-08-28T02:51:03.635Z,81
2022-08-28T02:52:10.256Z,81
2022-08-28T02:53:17.715Z,81
2022-08-28T02:54:27.068Z,81
2022-08-28T02:55:34.147Z,81
2022-08-28T02:56:35.991Z,81
2022-08-28T02:57:44.563Z,81
2022-08-28T02:58:48.800Z,81
2022-08-28T02:59:53.967Z,81
2022-08-28T03:00:59.263Z,81
2022-08-28T03:02:05.343Z,81
2022-08-28T03:03:09.691Z,81
2022-08-28T03:04:14.043Z,81
2022-08-28T03:05:18.226Z,81
2022-08-28T03:06:22.623Z,81
2022-08-28T03:07:26.876Z,81
2022-08-28T03:09:01.032Z,81
2022-08-28T03:10:07.324Z,81
2022-08-28T03:11:11.492Z,81
2022-08-28T03:12:15.728Z,81
2022-08-28T03:13:26.885Z,81
2022-08-28T03:14:33.691Z,81
2022-08-28T03:15:37.956Z,81
2022-08-28T03:16:52.513Z,81
2022-08-28T03:18:05.198Z,81
2022-08-28T03:19:08.303Z,81
2022-08-28T03:20:16.378Z,81
2022-08-28T03:21:20.728Z,80
2022-08-28T03:22:25.195Z,81
2022-08-28T03:23:34.603Z,80
2022-08-28T03:24:41.513Z,80
2022-08-28T03:25:48.779Z,81
2022-08-28T03:27:00.159Z,81
2022-08-28T03:28:06.533Z,81
2022-08-28T03:29:10.779Z,81
2022-08-28T03:30:15.023Z,81
2022-08-28T03:31:20.221Z,81
2022-08-28T03:32:24.599Z,81
2022-08-28T03:33:28.903Z,81
2022-08-28T03:34:33.308Z,81
2022-08-28T03:35:38.748Z,81
2022-08-28T03:36:42.951Z,81
2022-08-28T03:37:47.495Z,81
2022-08-28T03:38:51.999Z,81
2022-08-28T03:39:56.319Z,81
2022-08-28T03:41:00.603Z,81
2022-08-28T03:42:05.059Z,82
2022-08-28T03:43:09.507Z,81
2022-08-28T03:44:14.763Z,82
2022-08-28T03:45:19.023Z,82
2022-08-28T03:46:23.439Z,82
2022-08-28T03:47:27.711Z,82
2022-08-28T03:48:31.991Z,82
2022-08-28T03:49:46.475Z,82
2022-08-28T03:50:56.083Z,82
2022-08-28T03:52:10.603Z,82
2022-08-28T03:53:31.819Z,82
2022-08-28T03:54:36.084Z,82
2022-08-28T03:55:40.491Z,82
2022-08-28T03:56:44.697Z,82
2022-08-28T03:57:48.899Z,82
2022-08-28T03:58:53.059Z,82
2022-08-28T03:59:57.179Z,81
2022-08-28T04:01:03.197Z,81
2022-08-28T04:02:11.723Z,81
2022-08-28T04:03:19.858Z,81
2022-08-28T04:04:24.525Z,81
2022-08-28T04:05:30.331Z,81
2022-08-28T04:06:36.102Z,81
2022-08-28T04:07:39.174Z,81
2022-08-28T04:08:43.663Z,81
2022-08-28T04:09:48.131Z,81
2022-08-28T04:10:52.567Z,81
2022-08-28T04:11:56.871Z,81
2022-08-28T04:13:01.279Z,81
2022-08-28T04:14:05.591Z,81
2022-08-28T04:15:11.808Z,81
2022-08-28T04:16:16.097Z,81
2022-08-28T04:17:21.364Z,82
2022-08-28T04:18:26.424Z,81
2022-08-28T04:19:45.023Z,83
2022-08-28T04:20:49.295Z,82
2022-08-28T04:21:58.549Z,83
2022-08-28T04:23:07.839Z,83
2022-08-28T04:24:14.140Z,83
2022-08-28T04:25:18.851Z,83
2022-08-28T04:26:23.367Z,82
2022-08-28T04:27:29.079Z,82
2022-08-28T04:28:33.511Z,82
2022-08-28T04:29:37.747Z,82
2022-08-28T04:30:42.235Z,82
2022-08-28T04:31:46.436Z,83
2022-08-28T04:34:33.944Z,82
2022-08-28T04:35:43.447Z,83
2022-08-28T04:36:47.847Z,84
2022-08-28T04:37:52.244Z,83
2022-08-28T04:38:56.715Z,83
2022-08-28T04:40:01.012Z,83
2022-08-28T04:41:10.283Z,83
2022-08-28T04:42:20.459Z,83
2022-08-28T04:43:24.594Z,83
2022-08-28T04:44:28.789Z,83
2022-08-28T04:45:39.044Z,83
2022-08-28T04:46:48.250Z,83
2022-08-28T04:48:02.954Z,83
2022-08-28T04:49:05.805Z,82
2022-08-28T04:50:14.204Z,82
2022-08-28T04:51:23.575Z,82
2022-08-28T04:52:31.735Z,82
2022-08-28T04:53:36.019Z,82
2022-08-28T04:54:40.159Z,82
2022-08-28T04:55:52.311Z,84
2022-08-28T04:56:58.563Z,82
2022-08-28T04:58:08.788Z,83
2022-08-28T04:59:12.943Z,82
2022-08-28T05:00:17.073Z,82
2022-08-28T05:01:26.011Z,83
2022-08-28T05:02:30.532Z,84
2022-08-28T05:03:34.916Z,84
2022-08-28T05:04:39.291Z,83
2022-08-28T05:05:43.651Z,83
2022-08-28T05:08:17.143Z,83
2022-08-28T05:09:21.471Z,83
2022-08-28T05:10:28.471Z,83
2022-08-28T05:11:34.718Z,83
2022-08-28T05:12:37.030Z,83
2022-08-28T05:15:06.690Z,83
2022-08-28T05:16:11.311Z,83
2022-08-28T05:17:15.747Z,82
2022-08-28T05:18:20.079Z,82
2022-08-28T05:19:24.334Z,82
2022-08-28T05:20:28.667Z,82
2022-08-28T05:21:35.967Z,82
2022-08-28T05:22:40.397Z,82
2022-08-28T05:23:44.735Z,82
2022-08-28T05:24:48.983Z,82
2022-08-28T05:25:53.199Z,82
2022-08-28T05:26:57.503Z,82
2022-08-28T05:28:01.999Z,82
2022-08-28T05:29:06.367Z,82
2022-08-28T05:30:11.083Z,82
2022-08-28T05:31:15.780Z,82
2022-08-28T05:32:20.203Z,82
2022-08-28T05:33:24.519Z,81
2022-08-28T05:34:30.438Z,82
2022-08-28T05:35:34.851Z,82
2022-08-28T05:36:42.339Z,81
2022-08-28T05:37:48.491Z,81
2022-08-28T05:38:53.356Z,81
2022-08-28T05:39:57.662Z,81
2022-08-28T05:41:02.006Z,81
2022-08-28T05:42:06.587Z,81
2022-08-28T05:43:10.911Z,81
2022-08-28T05:44:15.402Z,81
2022-08-28T05:45:22.428Z,81
2022-08-28T05:46:26.823Z,81
2022-08-28T05:47:31.171Z,81
2022-08-28T05:48:37.074Z,81
2022-08-28T05:49:39.995Z,81
2022-08-28T05:50:47.259Z,81
2022-08-28T05:51:49.151Z,81
2022-08-28T05:52:53.575Z,82
2022-08-28T05:53:57.946Z,81
2022-08-28T05:55:02.002Z,81
2022-08-28T05:56:06.675Z,81
2022-08-28T05:57:10.998Z,81
2022-08-28T05:58:15.699Z,81
2022-08-28T05:59:25.381Z,81
2022-08-28T06:00:29.815Z,81
2022-08-28T06:01:35.848Z,81
2022-08-28T06:02:40.275Z,81
2022-08-28T06:03:45.248Z,81
2022-08-28T06:04:53.970Z,81
2022-08-28T06:05:58.423Z,81
2022-08-28T06:07:02.983Z,81
2022-08-28T06:08:07.578Z,81
2022-08-28T06:09:12.127Z,81
2022-08-28T06:10:19.270Z,81
2022-08-28T06:11:24.511Z,81
2022-08-28T06:12:28.479Z,81
2022-08-28T06:13:32.907Z,81
2022-08-28T06:14:37.206Z,81
2022-08-28T06:15:41.662Z,82
2022-08-28T06:17:50.551Z,81
2022-08-28T06:18:57.231Z,83
2022-08-28T06:20:05.699Z,83
2022-08-28T06:21:11.663Z,83
2022-08-28T06:22:24.178Z,81
2022-08-28T06:23:28.510Z,81
2022-08-28T06:24:32.871Z,82
2022-08-28T06:25:37.207Z,82
2022-08-28T06:26:41.546Z,81
2022-08-28T06:27:45.899Z,81
2022-08-28T06:28:50.362Z,81
2022-08-28T06:29:54.827Z,82
2022-08-28T06:31:18.301Z,81
2022-08-28T06:32:07.805Z,81
2022-08-28T06:33:12.115Z,80
2022-08-28T06:34:20.234Z,81
2022-08-28T06:35:27.887Z,81
2022-08-28T06:36:35.240Z,80
2022-08-28T06:37:39.614Z,80
2022-08-28T06:38:44.259Z,80
2022-08-28T06:39:48.742Z,80
2022-08-28T06:40:54.119Z,80
2022-08-28T06:41:58.602Z,80
2022-08-28T06:43:02.898Z,80
2022-08-28T06:44:07.426Z,80
2022-08-28T06:45:11.689Z,80
2022-08-28T06:46:16.192Z,80
2022-08-28T06:47:20.836Z,80
2022-08-28T06:48:25.891Z,80
2022-08-28T06:49:30.167Z,79
2022-08-28T06:50:36.647Z,80
2022-08-28T06:51:43.799Z,80
2022-08-28T06:52:52.994Z,80
2022-08-28T06:53:57.510Z,80
2022-08-28T06:55:02.407Z,80
2022-08-28T06:56:07.064Z,80
2022-08-28T06:57:13.994Z,80
2022-08-28T06:58:18.911Z,80
2022-08-28T06:59:23.376Z,81
2022-08-28T07:00:27.798Z,80
2022-08-28T07:01:32.160Z,81
2022-08-28T07:02:40.746Z,80
2022-08-28T07:03:45.138Z,81
2022-08-28T07:04:49.606Z,81
2022-08-28T07:05:53.888Z,81
2022-08-28T07:06:58.194Z,80
2022-08-28T07:08:02.514Z,80
2022-08-28T07:09:06.826Z,81
2022-08-28T07:10:11.214Z,80
2022-08-28T07:11:15.530Z,80
2022-08-28T07:12:25.749Z,80
2022-08-28T07:13:33.745Z,81
2022-08-28T07:14:36.875Z,80
2022-08-28T07:15:41.825Z,80
2022-08-28T07:16:45.679Z,80
2022-08-28T07:17:50.540Z,79
2022-08-28T07:18:55.138Z,79
2022-08-28T07:19:59.410Z,79
2022-08-28T07:21:03.872Z,79
2022-08-28T07:22:08.226Z,78
2022-08-28T07:23:12.507Z,78
2022-08-28T07:24:16.978Z,78
2022-08-28T07:25:26.331Z,78
2022-08-28T07:26:30.862Z,78
2022-08-28T07:27:35.383Z,77
2022-08-28T07:28:39.905Z,77
2022-08-28T07:29:49.258Z,78
2022-08-28T07:30:53.578Z,77
2022-08-28T07:32:05.886Z,77
2022-08-28T07:33:14.027Z,77
2022-08-28T07:34:18.486Z,76
2022-08-28T07:35:22.691Z,76
2022-08-28T07:36:28.994Z,76
2022-08-28T07:37:31.634Z,77
2022-08-28T07:38:36.302Z,77
2022-08-28T07:39:40.714Z,77
2022-08-28T07:40:45.123Z,77
2022-08-28T07:41:49.503Z,78
2022-08-28T07:42:53.978Z,77
2022-08-28T07:43:58.454Z,77
2022-08-28T07:45:07.850Z,77
2022-08-28T07:46:12.845Z,75
2022-08-28T07:47:17.234Z,76
2022-08-28T07:48:21.834Z,76
2022-08-28T07:49:26.386Z,75
2022-08-28T07:50:30.882Z,75
2022-08-28T07:51:35.185Z,76
2022-08-28T07:52:39.518Z,76
2022-08-28T07:53:43.867Z,76
2022-08-28T07:54:48.186Z,77
2022-08-28T07:55:52.750Z,77
2022-08-28T07:57:00.034Z,76
2022-08-28T07:58:04.422Z,76
2022-08-28T07:59:11.126Z,75
2022-08-28T08:00:15.514Z,75
2022-08-28T08:01:19.970Z,75
2022-08-28T08:02:24.346Z,75
2022-08-28T08:03:30.952Z,75
2022-08-28T08:04:35.633Z,75
2022-08-28T08:05:39.983Z,75
2022-08-28T08:06:44.370Z,75
2022-08-28T08:07:48.675Z,75
2022-08-28T08:08:53.302Z,75
2022-08-28T08:09:57.815Z,75
2022-08-28T08:11:01.874Z,75
2022-08-28T08:12:10.163Z,75
2022-08-28T08:13:13.611Z,75
2022-08-28T08:14:18.071Z,75
2022-08-28T08:15:22.518Z,74
2022-08-28T08:16:26.934Z,75
2022-08-28T08:17:31.439Z,74
2022-08-28T08:18:35.782Z,74
2022-08-28T08:19:43.794Z,74
2022-08-28T08:20:48.453Z,74
2022-08-28T08:21:54.684Z,75
2022-08-28T08:22:57.483Z,75
2022-08-28T08:24:02.682Z,75
2022-08-28T08:25:07.094Z,75
2022-08-28T08:26:11.494Z,75
2022-08-28T08:27:15.818Z,75
2022-08-28T08:28:20.210Z,74
2022-08-28T08:29:24.798Z,74
2022-08-28T08:30:29.262Z,74
2022-08-28T08:31:33.912Z,75
2022-08-28T08:32:38.253Z,75
2022-08-28T08:33:42.570Z,74
2022-08-28T08:34:46.874Z,74
2022-08-28T08:35:51.500Z,75
2022-08-28T08:36:59.338Z,75
2022-08-28T08:38:08.590Z,75
2022-08-28T08:39:13.250Z,74
2022-08-28T08:40:17.591Z,75
2022-08-28T08:41:22.013Z,74
2022-08-28T08:42:29.399Z,74
2022-08-28T08:43:33.731Z,73
2022-08-28T08:44:38.106Z,74
2022-08-28T08:45:42.510Z,74
2022-08-28T08:46:46.743Z,73
2022-08-28T08:47:59.030Z,73
2022-08-28T08:49:03.482Z,73
2022-08-28T08:50:07.882Z,74
2022-08-28T08:51:20.318Z,73
2022-08-28T08:52:24.593Z,72
2022-08-28T08:53:35.218Z,72
2022-08-28T08:54:43.518Z,72
2022-08-28T08:55:47.774Z,71
2022-08-28T08:56:55.163Z,71
2022-08-28T08:57:59.621Z,71
2022-08-28T08:59:11.711Z,71
2022-08-28T09:00:18.809Z,70
2022-08-28T09:01:24.789Z,70
2022-08-28T09:02:31.382Z,70
2022-08-28T09:03:37.656Z,69
2022-08-28T09:04:44.686Z,69
2022-08-28T09:05:57.246Z,70
2022-08-28T09:07:01.630Z,71
2022-08-28T09:08:08.773Z,70
2022-08-28T09:09:13.271Z,70
2022-08-28T09:10:20.714Z,71
2022-08-28T09:11:25.034Z,70
2022-08-28T09:12:38.503Z,70
2022-08-28T09:13:48.123Z,70
2022-08-28T09:14:55.250Z,70
2022-08-28T09:15:59.717Z,71
2022-08-28T09:17:04.242Z,71
2022-08-28T09:18:08.522Z,71
2022-08-28T09:19:22.638Z,70
2022-08-28T09:20:32.952Z,71
2022-08-28T09:21:35.640Z,71
2022-08-28T09:22:41.510Z,71
2022-08-28T09:23:45.794Z,70
2022-08-28T09:24:50.424Z,70
2022-08-28T09:27:00.778Z,70
2022-08-28T09:28:07.935Z,70
2022-08-28T09:29:12.358Z,70
2022-08-28T09:30:19.123Z,70
2022-08-28T09:31:31.321Z,70
2022-08-28T09:33:46.478Z,70
2022-08-28T09:34:50.755Z,70
2022-08-28T09:36:01.025Z,71
2022-08-28T09:37:15.388Z,69
2022-08-28T09:38:25.184Z,69
2022-08-28T09:39:28.577Z,69
2022-08-28T09:40:33.091Z,69
2022-08-28T09:41:42.269Z,69
2022-08-28T09:43:02.630Z,69
2022-08-28T09:44:20.178Z,69
2022-08-28T09:45:25.618Z,69
2022-08-28T09:46:30.167Z,69
2022-08-28T09:47:34.422Z,68
2022-08-28T09:48:41.641Z,68
2022-08-28T09:49:45.990Z,69
2022-08-28T09:50:50.350Z,70
2022-08-28T09:51:57.778Z,69
2022-08-28T09:53:02.336Z,68
2022-08-28T09:54:09.149Z,69
2022-08-28T09:55:23.484Z,69
2022-08-28T09:56:37.890Z,68
2022-08-28T09:57:42.402Z,68
2022-08-28T09:58:47.983Z,68
2022-08-28T09:59:52.517Z,68
2022-08-28T10:00:56.792Z,68
2022-08-28T10:02:07.521Z,68
2022-08-28T10:03:16.874Z,67
2022-08-28T10:04:22.685Z,67
2022-08-28T10:05:37.250Z,67
2022-08-28T10:06:43.543Z,67
2022-08-28T10:07:54.871Z,67
2022-08-28T10:08:58.561Z,68
2022-08-28T10:10:10.905Z,67
2022-08-28T10:11:20.301Z,68
2022-08-28T10:12:33.659Z,68
2022-08-28T10:13:48.173Z,67
2022-08-28T10:14:57.682Z,67
2022-08-28T10:16:04.622Z,67
2022-08-28T10:17:14.650Z,68
2022-08-28T10:18:24.017Z,67
2022-08-28T10:19:36.213Z,67
2022-08-28T10:20:45.521Z,67
2022-08-28T10:22:00.277Z,67
2022-08-28T10:23:17.076Z,67
2022-08-28T10:24:23.922Z,67
2022-08-28T10:25:33.257Z,66
2022-08-28T10:26:42.637Z,65
2022-08-28T10:27:52.022Z,66
2022-08-28T10:29:03.954Z,65
2022-08-28T10:30:18.592Z,65
2022-08-28T10:31:23.269Z,64
2022-08-28T10:32:32.715Z,64
2022-08-28T10:33:49.287Z,64
2022-08-28T10:35:01.525Z,64
2022-08-28T10:36:21.183Z,63
2022-08-28T10:37:20.286Z,63
2022-08-28T10:38:24.570Z,63
2022-08-28T10:39:39.097Z,63
2022-08-28T10:40:43.405Z,64
2022-08-28T10:41:47.769Z,63
2022-08-28T10:42:52.006Z,63
2022-08-28T10:44:04.321Z,62
2022-08-28T10:45:08.881Z,62
2022-08-28T10:46:16.091Z,63
2022-08-28T10:47:20.401Z,62
2022-08-28T10:48:24.677Z,60
2022-08-28T10:49:29.129Z,60
2022-08-28T10:50:43.006Z,60
2022-08-28T10:51:50.081Z,60
2022-08-28T10:53:04.549Z,60
2022-08-28T10:54:14.081Z,59
2022-08-28T10:55:23.677Z,60
2022-08-28T10:56:27.966Z,59
2022-08-28T10:57:34.976Z,60
2022-08-28T10:58:42.277Z,60
2022-08-28T10:59:46.509Z,60
2022-08-28T11:00:53.749Z,60
2022-08-28T11:02:01.317Z,59
2022-08-28T11:03:05.827Z,58
2022-08-28T11:04:10.049Z,57
2022-08-28T11:05:19.454Z,57
2022-08-28T11:06:24.418Z,57
2022-08-28T11:07:37.103Z,57
2022-08-28T11:08:44.358Z,57
2022-08-28T11:09:53.838Z,57
2022-08-28T11:10:58.133Z,57
2022-08-28T11:12:04.780Z,57
2022-08-28T11:13:13.291Z,58
2022-08-28T11:14:27.437Z,60
2022-08-28T11:15:36.960Z,60
2022-08-28T11:16:36.053Z,60
2022-08-28T11:17:44.964Z,61
2022-08-28T11:18:53.138Z,61
2022-08-28T11:20:07.734Z,61
2022-08-28T11:21:15.088Z,60
2022-08-28T11:22:24.420Z,60
2022-08-28T11:23:36.969Z,60
2022-08-28T11:24:51.320Z,61
2022-08-28T11:25:55.847Z,60
2022-08-28T11:27:00.336Z,60
2022-08-28T11:28:09.765Z,60
2022-08-28T11:29:19.216Z,60
2022-08-28T11:30:33.680Z,60
2022-08-28T11:31:37.980Z,60
2022-08-28T11:32:46.923Z,60
2022-08-28T11:33:51.832Z,60
2022-08-28T11:34:56.436Z,60
2022-08-28T11:36:01.056Z,60
2022-08-28T11:38:11.798Z,60
2022-08-28T11:39:26.385Z,61
2022-08-28T11:40:30.946Z,61
2022-08-28T11:41:35.274Z,62
2022-08-28T11:42:39.785Z,62
2022-08-28T11:43:44.124Z,62
2022-08-28T11:44:56.820Z,62
2022-08-28T11:46:05.154Z,62
2022-08-28T11:47:19.977Z,62
2022-08-28T11:48:32.113Z,63
2022-08-28T11:49:36.609Z,64
2022-08-28T11:50:41.270Z,66
2022-08-28T11:51:57.281Z,69
2022-08-28T11:53:07.336Z,72
2022-08-28T11:54:17.204Z,72
2022-08-28T11:55:29.748Z,73
2022-08-28T11:56:39.284Z,76
2022-08-28T11:57:50.477Z,77
2022-08-28T11:58:59.280Z,77
2022-08-28T12:00:06.712Z,77
2022-08-28T12:01:11.486Z,77
2022-08-28T12:02:16.658Z,75
2022-08-28T12:03:31.456Z,76
2022-08-28T12:04:43.581Z,76
2022-08-28T12:05:47.864Z,77
2022-08-28T12:06:55.484Z,77
2022-08-28T12:08:10.466Z,77
2022-08-28T12:09:15.462Z,78
2022-08-28T12:10:27.567Z,80
2022-08-28T12:11:34.132Z,80
2022-08-28T12:12:41.194Z,78
2022-08-28T12:13:45.697Z,79
2022-08-28T12:14:50.437Z,78
2022-08-28T12:15:57.532Z,76
2022-08-28T12:17:07.244Z,77
2022-08-28T12:18:16.760Z,78
2022-08-28T12:19:29.116Z,78
2022-08-28T12:20:36.553Z,78
2022-08-28T12:21:51.253Z,79
2022-08-28T12:22:55.992Z,81
2022-08-28T12:24:05.474Z,81
2022-08-28T12:25:06.568Z,81
2022-08-28T12:26:13.808Z,82
2022-08-28T12:27:24.649Z,82
2022-08-28T12:28:30.516Z,82
2022-08-28T12:29:38.824Z,82
2022-08-28T12:30:51.295Z,82
2022-08-28T12:32:03.468Z,83
2022-08-28T12:33:23.168Z,84
2022-08-28T12:34:27.901Z,85
2022-08-28T12:35:43.857Z,85
2022-08-28T12:36:51.546Z,85
2022-08-28T12:37:57.558Z,86
2022-08-28T12:39:02.264Z,86
2022-08-28T12:40:06.979Z,85
2022-08-28T12:42:22.361Z,86
2022-08-28T12:43:26.676Z,87
2022-08-28T12:44:36.940Z,87
2022-08-28T12:45:42.138Z,87
2022-08-28T12:46:46.408Z,88
2022-08-28T12:47:51.096Z,87
2022-08-28T12:48:55.748Z,88
2022-08-28T12:50:02.724Z,88
2022-08-28T12:51:17.108Z,88
2022-08-28T12:52:24.020Z,89
2022-08-28T12:53:28.241Z,88
2022-08-28T12:54:37.677Z,88
2022-08-28T12:55:42.061Z,88
2022-08-28T12:56:46.680Z,88
2022-08-28T12:57:51.026Z,88
2022-08-28T12:58:55.592Z,88
2022-08-28T13:00:10.143Z,88
2022-08-28T13:01:17.599Z,88
2022-08-28T13:02:21.969Z,88
2022-08-28T13:03:29.248Z,88
2022-08-28T13:04:33.699Z,87
2022-08-28T13:05:40.775Z,87
2022-08-28T13:06:45.279Z,87
2022-08-28T13:07:49.712Z,86
2022-08-28T13:08:54.064Z,86
2022-08-28T13:09:58.920Z,86
2022-08-28T13:11:06.740Z,86
2022-08-28T13:12:11.373Z,85
2022-08-28T13:13:21.582Z,85
2022-08-28T13:14:31.041Z,85
2022-08-28T13:15:38.588Z,85
2022-08-28T13:16:43.275Z,85
2022-08-28T13:17:47.852Z,85
2022-08-28T13:18:52.384Z,85
2022-08-28T13:20:04.880Z,85
2022-08-28T13:21:09.424Z,85
2022-08-28T13:22:18.996Z,85
2022-08-28T13:23:31.220Z,85
2022-08-28T13:24:35.913Z,85
2022-08-28T13:25:40.320Z,85
2022-08-28T13:26:44.616Z,85
2022-08-28T13:27:49.356Z,85
2022-08-28T13:29:02.060Z,85
2022-08-28T13:30:16.529Z,85
2022-08-28T13:31:24.028Z,85
2022-08-28T13:32:31.504Z,85
2022-08-28T13:33:36.335Z,85
2022-08-28T13:34:45.567Z,85
2022-08-28T13:35:45.540Z,85
2022-08-28T13:36:50.240Z,85
2022-08-28T13:37:54.700Z,85
2022-08-28T13:38:58.941Z,85
2022-08-28T13:40:08.252Z,85
2022-08-28T13:41:08.318Z,85
2022-08-28T13:42:12.542Z,85
2022-08-28T13:43:16.920Z,85
2022-08-28T13:44:21.324Z,85
2022-08-28T13:45:31.546Z,85
2022-08-28T13:46:36.098Z,85
2022-08-28T13:47:40.492Z,85
2022-08-28T13:48:45.391Z,85
2022-08-28T13:49:49.744Z,85
2022-08-28T13:50:54.204Z,85
2022-08-28T13:51:58.934Z,85
2022-08-28T13:53:03.416Z,85
2022-08-28T13:54:07.736Z,86
2022-08-28T13:55:12.288Z,86
2022-08-28T13:56:16.937Z,85
2022-08-28T13:57:21.632Z,86
2022-08-28T13:58:27.043Z,86
2022-08-28T13:59:31.667Z,85
2022-08-28T14:00:36.657Z,85
2022-08-28T14:01:42.302Z,84
2022-08-28T14:02:51.094Z,84
2022-08-28T14:04:00.727Z,85
2022-08-28T14:05:05.352Z,85
2022-08-28T14:06:09.712Z,85
2022-08-28T14:07:14.047Z,85
2022-08-28T14:08:18.599Z,85
2022-08-28T14:09:22.960Z,86
2022-08-28T14:10:27.455Z,86
2022-08-28T14:11:32.151Z,86
2022-08-28T14:12:36.891Z,85
2022-08-28T14:13:46.791Z,85
2022-08-28T14:14:47.447Z,85
2022-08-28T14:15:52.300Z,85
2022-08-28T14:16:57.543Z,85
2022-08-28T14:18:03.016Z,85
2022-08-28T14:19:07.743Z,85
2022-08-28T14:20:12.491Z,85
2022-08-28T14:21:16.956Z,85
2022-08-28T14:22:21.360Z,85
2022-08-28T14:23:26.184Z,85
2022-08-28T14:24:33.531Z,85
2022-08-28T14:25:39.256Z,84
2022-08-28T14:26:45.099Z,84
2022-08-28T14:27:49.640Z,84
2022-08-28T14:28:54.099Z,84
2022-08-28T14:30:00.238Z,84
2022-08-28T14:31:05.090Z,84
2022-08-28T14:32:09.761Z,84
2022-08-28T14:33:14.748Z,84
2022-08-28T14:34:19.159Z,84
2022-08-28T14:35:23.795Z,84
2022-08-28T14:36:28.237Z,84
2022-08-28T14:37:33.059Z,84
2022-08-28T14:38:37.351Z,84
2022-08-28T14:39:42.041Z,84
2022-08-28T14:40:46.111Z,84
2022-08-28T14:41:50.607Z,84
2022-08-28T14:42:55.127Z,84
2022-08-28T14:43:59.592Z,84
2022-08-28T14:45:08.351Z,84
2022-08-28T14:46:12.964Z,84
2022-08-28T14:48:22.015Z,84
2022-08-28T14:49:27.607Z,84
2022-08-28T14:50:32.191Z,84
2022-08-28T14:51:40.919Z,84
2022-08-28T14:52:45.275Z,84
2022-08-28T14:53:52.835Z,84
2022-08-28T14:54:57.223Z,84
2022-08-28T14:56:01.739Z,84
2022-08-28T14:57:05.991Z,84
2022-08-28T14:58:10.375Z,83
2022-08-28T14:59:17.624Z,84
2022-08-28T15:00:19.279Z,84
2022-08-28T15:01:24.116Z,84
2022-08-28T15:02:28.820Z,84
2022-08-28T15:03:33.112Z,84
2022-08-28T15:04:37.694Z,84
2022-08-28T15:05:42.062Z,84
2022-08-28T15:06:46.679Z,84
2022-08-28T15:07:51.583Z,84
2022-08-28T15:08:56.046Z,83
2022-08-28T15:10:00.480Z,84
2022-08-28T15:11:05.147Z,84
2022-08-28T15:12:09.590Z,84
2022-08-28T15:13:14.481Z,84
2022-08-28T15:14:19.075Z,84
2022-08-28T15:15:23.899Z,84
2022-08-28T15:16:30.221Z,84
2022-08-28T15:17:34.635Z,84
2022-08-28T15:18:38.732Z,84
2022-08-28T15:19:43.655Z,84
2022-08-28T15:20:50.651Z,84
2022-08-28T15:21:55.879Z,84
2022-08-28T15:23:01.015Z,84
2022-08-28T15:24:05.959Z,84
2022-08-28T15:25:10.362Z,84
2022-08-28T15:26:19.643Z,84
2022-08-28T15:27:24.179Z,83
2022-08-28T15:28:28.555Z,84
2022-08-28T15:29:32.927Z,84
2022-08-28T15:30:37.272Z,84
2022-08-28T15:31:41.748Z,84
2022-08-28T15:32:46.315Z,84
2022-08-28T15:33:54.219Z,84
2022-08-28T15:34:58.763Z,84
2022-08-28T15:36:03.176Z,84
2022-08-28T15:37:07.753Z,84
2022-08-28T15:38:12.424Z,84
2022-08-28T15:39:17.115Z,84
2022-08-28T15:40:26.678Z,84
2022-08-28T15:41:36.056Z,84
2022-08-28T15:42:41.098Z,84
2022-08-28T15:44:49.595Z,84
2022-08-28T15:45:54.306Z,84
2022-08-28T15:46:58.916Z,84
2022-08-28T15:48:04.342Z,84
2022-08-28T15:49:09.332Z,84
2022-08-28T15:50:13.474Z,84
2022-08-28T15:51:17.822Z,84
2022-08-28T15:52:22.223Z,84
2022-08-28T15:53:26.615Z,84
2022-08-28T15:54:30.979Z,84
2022-08-28T15:55:36.560Z,84
2022-08-28T15:56:39.889Z,84
2022-08-28T15:57:44.210Z,84
2022-08-28T15:58:48.490Z,84
2022-08-28T16:00:56.569Z,84
2022-08-28T16:02:00.958Z,84
2022-08-28T16:03:05.467Z,84
2022-08-28T16:04:10.234Z,84
2022-08-28T16:05:14.855Z,84
2022-08-28T16:06:19.443Z,84
2022-08-28T16:07:23.774Z,84
2022-08-28T16:08:28.215Z,84